Medlin's Ranch, Nevada Weather observations

Data are for observation ending at time listed.
 Day   Time    Ave.   Ave.  Ave.  Vector   Max.   Stn.    Total    Solar   Ave.  
  of    of     Air    Rel.  Wind   Wind    Wind   Baro.  Precip.   Rad.    Soil  
Year   Day     Temp.  Hum.  Speed  Dir.    Gust   Pres.                    Temp. 
2016   (PST)    F      %     mph   deg.    mph     mb.     in.     W/m2     F   
------------------------------------------------------------------------------
 211   18:00   93.3    12   14.2   336     28.9    862     0.00      34    97.7
 211   19:00   89.1    18   10.8    11     23.1    862     0.00      11    96.7
 211   20:00   85.3    23    3.6   192      8.9    864     0.00       0    95.7
 211   21:00   82.2    27    2.7   321     10.4    864     0.00       0    94.6
 211   22:00   81.0    27    2.0    70      5.1    863     0.00       0    93.5
 211   23:00   79.6    28    3.4   222      6.0    863     0.00       0    92.4
 212    0:00   78.4    28    4.3   250      8.3    862     0.00       0    91.5
 212    1:00   77.6    27    3.4   321      6.9    862     0.00       0    90.6
 212    2:00   75.4    29    1.6   262      4.5    862     0.00       0    89.7
 212    3:00   73.3    30    2.8   238      7.3    862     0.00       0    88.9
 212    4:00   71.9    31    3.3   301      6.9    862     0.00       0    88.0
 212    5:00   72.5    31    1.9   294      4.4    863     0.00       1    87.1
 212    6:00   75.8    28    2.9   287      5.1    863     0.00      50    86.4
 212    7:00   79.3    26    2.1   253      4.7    864     0.00     122    85.9
 212    8:00   85.3    24    5.3   175     11.8    864     0.00     431    85.9
 212    9:00   88.1    23    8.2   192     21.2    864     0.00     632    87.0
 212   10:00   90.0    23   12.1   197     22.6    864     0.00     762    89.5
 212   11:00   92.2    23   12.7   189     22.1    864     0.00     857    92.5
 212   12:00   93.9    22   12.7   196     22.5    863     0.00     895    95.6
 212   13:00   95.8    19   11.2   192     20.8    862     0.00     894    98.4
 212   14:00   97.2    16   10.6   195     24.3    861     0.00     776    100.7
 212   15:00   95.5    16   10.0   201     20.8    861     0.00     203    101.7
 212   16:00   94.3    16    9.1   213     18.0    860     0.00     102    101.6
 212   17:00   92.7    18    8.0   348     19.4    860     0.00     154    100.6

Return to Medlin's Ranch, Nevada graphs page.


Western Regional Climate Center,wrcc@dri.edu